sensor_id;sensor_type;location;lat;lon;timestamp;P1;durP1;ratioP1;P2;durP2;ratioP2
66163;SDS011;52962;51.088;3.096;2023-07-09T00:01:58;4.03;;;3.53;;
66163;SDS011;52962;51.088;3.096;2023-07-09T00:04:27;4.03;;;3.17;;
66163;SDS011;52962;51.088;3.096;2023-07-09T00:06:56;3.70;;;3.40;;
66163;SDS011;52962;51.088;3.096;2023-07-09T00:09:28;2.30;;;2.20;;
66163;SDS011;52962;51.088;3.096;2023-07-09T00:11:57;3.40;;;3.10;;
66163;SDS011;52962;51.088;3.096;2023-07-09T00:14:26;5.20;;;2.90;;
66163;SDS011;52962;51.088;3.096;2023-07-09T00:16:54;2.58;;;2.38;;
66163;SDS011;52962;51.088;3.096;2023-07-09T00:19:24;2.90;;;2.70;;
66163;SDS011;52962;51.088;3.096;2023-07-09T00:21:56;4.28;;;2.58;;
66163;SDS011;52962;51.088;3.096;2023-07-09T00:24:24;2.42;;;2.30;;
66163;SDS011;52962;51.088;3.096;2023-07-09T00:26:56;4.63;;;3.08;;
66163;SDS011;52962;51.088;3.096;2023-07-09T00:29:24;3.40;;;3.17;;
66163;SDS011;52962;51.088;3.096;2023-07-09T00:31:52;2.50;;;2.30;;
66163;SDS011;52962;51.088;3.096;2023-07-09T00:34:21;2.40;;;2.20;;
66163;SDS011;52962;51.088;3.096;2023-07-09T00:36:52;2.97;;;2.78;;
66163;SDS011;52962;51.088;3.096;2023-07-09T00:39:22;2.78;;;2.38;;
66163;SDS011;52962;51.088;3.096;2023-07-09T00:41:50;3.03;;;2.75;;
66163;SDS011;52962;51.088;3.096;2023-07-09T00:44:26;3.45;;;3.05;;
66163;SDS011;52962;51.088;3.096;2023-07-09T00:50:10;2.20;;;2.10;;
66163;SDS011;52962;51.088;3.096;2023-07-09T00:52:46;3.28;;;2.90;;
66163;SDS011;52962;51.088;3.096;2023-07-09T00:55:21;4.32;;;3.70;;
66163;SDS011;52962;51.088;3.096;2023-07-09T00:57:53;4.15;;;3.30;;
66163;SDS011;52962;51.088;3.096;2023-07-09T01:00:26;2.70;;;2.50;;
66163;SDS011;52962;51.088;3.096;2023-07-09T01:03:09;4.03;;;3.58;;
66163;SDS011;52962;51.088;3.096;2023-07-09T01:05:43;3.20;;;3.00;;
66163;SDS011;52962;51.088;3.096;2023-07-09T01:08:12;3.40;;;3.10;;
66163;SDS011;52962;51.088;3.096;2023-07-09T01:10:40;2.85;;;2.65;;
66163;SDS011;52962;51.088;3.096;2023-07-09T01:13:09;2.90;;;2.70;;
66163;SDS011;52962;51.088;3.096;2023-07-09T01:15:37;2.58;;;2.38;;
66163;SDS011;52962;51.088;3.096;2023-07-09T01:18:06;2.70;;;2.50;;
66163;SDS011;52962;51.088;3.096;2023-07-09T01:20:35;2.60;;;2.40;;
66163;SDS011;52962;51.088;3.096;2023-07-09T01:23:04;2.85;;;2.65;;
66163;SDS011;52962;51.088;3.096;2023-07-09T01:25:33;4.90;;;3.22;;
66163;SDS011;52962;51.088;3.096;2023-07-09T01:28:04;2.60;;;2.40;;
66163;SDS011;52962;51.088;3.096;2023-07-09T01:30:34;2.60;;;2.40;;
66163;SDS011;52962;51.088;3.096;2023-07-09T01:33:05;3.05;;;2.78;;
66163;SDS011;52962;51.088;3.096;2023-07-09T01:35:35;3.65;;;2.20;;
66163;SDS011;52962;51.088;3.096;2023-07-09T01:38:09;2.63;;;2.35;;
66163;SDS011;52962;51.088;3.096;2023-07-09T01:40:37;2.55;;;2.45;;
66163;SDS011;52962;51.088;3.096;2023-07-09T01:43:05;2.33;;;2.05;;
66163;SDS011;52962;51.088;3.096;2023-07-09T01:45:34;2.35;;;2.15;;
66163;SDS011;52962;51.088;3.096;2023-07-09T01:48:04;2.83;;;2.63;;
66163;SDS011;52962;51.088;3.096;2023-07-09T01:50:43;2.63;;;2.35;;
66163;SDS011;52962;51.088;3.096;2023-07-09T01:53:13;2.85;;;2.65;;
66163;SDS011;52962;51.088;3.096;2023-07-09T01:55:43;3.95;;;2.67;;
66163;SDS011;52962;51.088;3.096;2023-07-09T01:58:12;2.90;;;2.70;;
66163;SDS011;52962;51.088;3.096;2023-07-09T02:00:43;1.48;;;1.38;;
66163;SDS011;52962;51.088;3.096;2023-07-09T02:03:12;1.63;;;1.52;;
66163;SDS011;52962;51.088;3.096;2023-07-09T02:05:41;1.70;;;1.60;;
66163;SDS011;52962;51.088;3.096;2023-07-09T02:08:10;1.58;;;1.48;;
66163;SDS011;52962;51.088;3.096;2023-07-09T02:10:39;1.35;;;1.33;;
66163;SDS011;52962;51.088;3.096;2023-07-09T02:13:07;2.65;;;2.45;;
66163;SDS011;52962;51.088;3.096;2023-07-09T02:15:36;2.15;;;2.05;;
66163;SDS011;52962;51.088;3.096;2023-07-09T02:18:04;2.58;;;2.38;;
66163;SDS011;52962;51.088;3.096;2023-07-09T02:20:34;2.30;;;2.10;;
66163;SDS011;52962;51.088;3.096;2023-07-09T02:23:03;2.67;;;2.35;;
66163;SDS011;52962;51.088;3.096;2023-07-09T02:25:31;2.28;;;2.13;;
66163;SDS011;52962;51.088;3.096;2023-07-09T02:28:01;2.20;;;2.10;;
66163;SDS011;52962;51.088;3.096;2023-07-09T02:30:29;3.33;;;2.47;;
66163;SDS011;52962;51.088;3.096;2023-07-09T02:32:58;2.42;;;2.22;;
66163;SDS011;52962;51.088;3.096;2023-07-09T02:35:26;2.58;;;2.38;;
66163;SDS011;52962;51.088;3.096;2023-07-09T02:37:54;2.95;;;2.75;;
66163;SDS011;52962;51.088;3.096;2023-07-09T02:40:22;3.28;;;2.58;;
66163;SDS011;52962;51.088;3.096;2023-07-09T02:42:51;2.67;;;2.55;;
66163;SDS011;52962;51.088;3.096;2023-07-09T02:45:20;2.60;;;2.40;;
66163;SDS011;52962;51.088;3.096;2023-07-09T02:47:48;2.35;;;2.25;;
66163;SDS011;52962;51.088;3.096;2023-07-09T02:50:17;2.40;;;2.20;;
66163;SDS011;52962;51.088;3.096;2023-07-09T02:52:46;2.30;;;2.20;;
66163;SDS011;52962;51.088;3.096;2023-07-09T02:55:14;4.38;;;1.77;;
66163;SDS011;52962;51.088;3.096;2023-07-09T02:57:42;1.42;;;1.40;;
66163;SDS011;52962;51.088;3.096;2023-07-09T03:00:11;2.10;;;2.00;;
66163;SDS011;52962;51.088;3.096;2023-07-09T03:02:41;2.47;;;2.33;;
66163;SDS011;52962;51.088;3.096;2023-07-09T03:05:09;1.60;;;1.50;;
66163;SDS011;52962;51.088;3.096;2023-07-09T03:07:38;4.07;;;2.40;;
66163;SDS011;52962;51.088;3.096;2023-07-09T03:10:06;1.58;;;1.48;;
66163;SDS011;52962;51.088;3.096;2023-07-09T03:12:35;2.33;;;1.70;;
66163;SDS011;52962;51.088;3.096;2023-07-09T03:15:04;2.40;;;1.70;;
66163;SDS011;52962;51.088;3.096;2023-07-09T03:17:33;1.67;;;1.50;;
66163;SDS011;52962;51.088;3.096;2023-07-09T03:20:02;1.85;;;1.75;;
66163;SDS011;52962;51.088;3.096;2023-07-09T03:22:34;1.92;;;1.77;;
66163;SDS011;52962;51.088;3.096;2023-07-09T03:25:03;2.30;;;2.17;;
66163;SDS011;52962;51.088;3.096;2023-07-09T03:27:31;1.15;;;1.15;;
66163;SDS011;52962;51.088;3.096;2023-07-09T03:30:00;2.22;;;2.00;;
66163;SDS011;52962;51.088;3.096;2023-07-09T03:32:29;1.70;;;1.60;;
66163;SDS011;52962;51.088;3.096;2023-07-09T03:34:58;4.35;;;2.25;;
66163;SDS011;52962;51.088;3.096;2023-07-09T03:37:27;1.52;;;1.42;;
66163;SDS011;52962;51.088;3.096;2023-07-09T03:39:56;2.15;;;1.35;;
66163;SDS011;52962;51.088;3.096;2023-07-09T03:42:24;1.92;;;1.80;;
66163;SDS011;52962;51.088;3.096;2023-07-09T03:44:52;2.45;;;2.25;;
66163;SDS011;52962;51.088;3.096;2023-07-09T03:47:20;2.15;;;2.05;;
66163;SDS011;52962;51.088;3.096;2023-07-09T03:49:48;2.20;;;2.05;;
66163;SDS011;52962;51.088;3.096;2023-07-09T03:52:16;2.45;;;2.25;;
66163;SDS011;52962;51.088;3.096;2023-07-09T03:54:46;1.92;;;1.77;;
66163;SDS011;52962;51.088;3.096;2023-07-09T03:57:14;1.65;;;1.42;;
66163;SDS011;52962;51.088;3.096;2023-07-09T03:59:42;2.72;;;2.53;;
66163;SDS011;52962;51.088;3.096;2023-07-09T04:02:10;2.03;;;1.92;;
66163;SDS011;52962;51.088;3.096;2023-07-09T04:04:39;3.20;;;3.00;;
66163;SDS011;52962;51.088;3.096;2023-07-09T04:09:35;2.33;;;2.13;;
66163;SDS011;52962;51.088;3.096;2023-07-09T04:12:05;2.33;;;2.22;;
66163;SDS011;52962;51.088;3.096;2023-07-09T04:14:34;2.70;;;2.50;;
66163;SDS011;52962;51.088;3.096;2023-07-09T04:17:02;2.22;;;2.05;;
66163;SDS011;52962;51.088;3.096;2023-07-09T04:19:31;2.30;;;2.15;;
66163;SDS011;52962;51.088;3.096;2023-07-09T04:21:59;2.78;;;2.47;;
66163;SDS011;52962;51.088;3.096;2023-07-09T04:24:27;2.83;;;2.55;;
66163;SDS011;52962;51.088;3.096;2023-07-09T04:26:55;3.63;;;3.33;;
66163;SDS011;52962;51.088;3.096;2023-07-09T04:29:25;2.60;;;2.40;;
66163;SDS011;52962;51.088;3.096;2023-07-09T04:31:53;2.63;;;2.42;;
66163;SDS011;52962;51.088;3.096;2023-07-09T04:34:21;1.75;;;1.65;;
66163;SDS011;52962;51.088;3.096;2023-07-09T04:36:50;2.90;;;2.55;;
66163;SDS011;52962;51.088;3.096;2023-07-09T04:39:18;2.38;;;2.15;;
66163;SDS011;52962;51.088;3.096;2023-07-09T04:41:47;1.77;;;1.67;;
66163;SDS011;52962;51.088;3.096;2023-07-09T04:44:15;1.17;;;1.17;;
66163;SDS011;52962;51.088;3.096;2023-07-09T04:46:45;2.15;;;1.95;;
66163;SDS011;52962;51.088;3.096;2023-07-09T04:49:15;1.77;;;1.50;;
66163;SDS011;52962;51.088;3.096;2023-07-09T04:51:44;2.55;;;2.35;;
66163;SDS011;52962;51.088;3.096;2023-07-09T04:56:40;2.53;;;2.35;;
66163;SDS011;52962;51.088;3.096;2023-07-09T04:59:11;2.00;;;1.88;;
66163;SDS011;52962;51.088;3.096;2023-07-09T05:01:40;1.58;;;1.50;;
66163;SDS011;52962;51.088;3.096;2023-07-09T05:04:09;1.67;;;1.58;;
66163;SDS011;52962;51.088;3.096;2023-07-09T05:06:38;2.45;;;2.25;;
66163;SDS011;52962;51.088;3.096;2023-07-09T05:09:06;1.92;;;1.50;;
66163;SDS011;52962;51.088;3.096;2023-07-09T05:11:35;1.55;;;1.45;;
66163;SDS011;52962;51.088;3.096;2023-07-09T05:14:04;1.38;;;1.17;;
66163;SDS011;52962;51.088;3.096;2023-07-09T05:16:32;0.98;;;0.93;;
66163;SDS011;52962;51.088;3.096;2023-07-09T05:19:00;0.85;;;0.85;;
66163;SDS011;52962;51.088;3.096;2023-07-09T05:21:30;0.65;;;0.65;;
66163;SDS011;52962;51.088;3.096;2023-07-09T05:23:58;2.00;;;1.63;;
66163;SDS011;52962;51.088;3.096;2023-07-09T05:26:26;0.70;;;0.70;;
66163;SDS011;52962;51.088;3.096;2023-07-09T05:28:55;1.65;;;1.35;;
66163;SDS011;52962;51.088;3.096;2023-07-09T05:31:25;1.60;;;1.50;;
66163;SDS011;52962;51.088;3.096;2023-07-09T05:33:53;1.70;;;1.60;;
66163;SDS011;52962;51.088;3.096;2023-07-09T05:36:21;1.20;;;1.10;;
66163;SDS011;52962;51.088;3.096;2023-07-09T05:38:51;1.60;;;1.38;;
66163;SDS011;52962;51.088;3.096;2023-07-09T05:41:19;1.42;;;1.33;;
66163;SDS011;52962;51.088;3.096;2023-07-09T05:43:49;2.50;;;1.40;;
66163;SDS011;52962;51.088;3.096;2023-07-09T05:46:17;0.70;;;0.70;;
66163;SDS011;52962;51.088;3.096;2023-07-09T05:48:46;1.42;;;1.13;;
66163;SDS011;52962;51.088;3.096;2023-07-09T05:51:14;0.55;;;0.55;;
66163;SDS011;52962;51.088;3.096;2023-07-09T05:53:43;1.05;;;1.05;;
66163;SDS011;52962;51.088;3.096;2023-07-09T05:56:12;0.70;;;0.70;;
66163;SDS011;52962;51.088;3.096;2023-07-09T05:58:40;1.15;;;1.00;;
66163;SDS011;52962;51.088;3.096;2023-07-09T06:01:09;1.30;;;1.20;;
66163;SDS011;52962;51.088;3.096;2023-07-09T06:03:37;0.95;;;0.95;;
66163;SDS011;52962;51.088;3.096;2023-07-09T06:06:06;0.45;;;0.45;;
66163;SDS011;52962;51.088;3.096;2023-07-09T06:08:34;0.70;;;0.70;;
66163;SDS011;52962;51.088;3.096;2023-07-09T06:11:05;0.65;;;0.65;;
66163;SDS011;52962;51.088;3.096;2023-07-09T06:13:35;0.93;;;0.88;;
66163;SDS011;52962;51.088;3.096;2023-07-09T06:16:04;1.05;;;0.98;;
66163;SDS011;52962;51.088;3.096;2023-07-09T06:18:33;2.88;;;1.10;;
66163;SDS011;52962;51.088;3.096;2023-07-09T06:21:02;1.05;;;0.85;;
66163;SDS011;52962;51.088;3.096;2023-07-09T06:23:30;3.03;;;1.30;;
66163;SDS011;52962;51.088;3.096;2023-07-09T06:25:59;0.80;;;0.80;;
66163;SDS011;52962;51.088;3.096;2023-07-09T06:28:28;0.82;;;0.82;;
66163;SDS011;52962;51.088;3.096;2023-07-09T06:30:58;2.00;;;1.05;;
66163;SDS011;52962;51.088;3.096;2023-07-09T06:33:27;2.10;;;0.98;;
66163;SDS011;52962;51.088;3.096;2023-07-09T06:35:56;0.80;;;0.80;;
66163;SDS011;52962;51.088;3.096;2023-07-09T06:38:26;0.70;;;0.70;;
66163;SDS011;52962;51.088;3.096;2023-07-09T06:40:54;1.63;;;0.60;;
66163;SDS011;52962;51.088;3.096;2023-07-09T06:43:23;1.80;;;0.90;;
66163;SDS011;52962;51.088;3.096;2023-07-09T06:45:51;0.40;;;0.40;;
66163;SDS011;52962;51.088;3.096;2023-07-09T06:48:23;1.90;;;1.80;;
66163;SDS011;52962;51.088;3.096;2023-07-09T06:50:53;1.38;;;1.27;;
66163;SDS011;52962;51.088;3.096;2023-07-09T06:53:23;1.63;;;1.35;;
66163;SDS011;52962;51.088;3.096;2023-07-09T06:55:52;1.52;;;1.23;;
66163;SDS011;52962;51.088;3.096;2023-07-09T06:58:22;1.13;;;1.13;;
66163;SDS011;52962;51.088;3.096;2023-07-09T07:00:52;0.60;;;0.60;;
66163;SDS011;52962;51.088;3.096;2023-07-09T07:03:20;0.52;;;0.52;;
66163;SDS011;52962;51.088;3.096;2023-07-09T07:05:51;1.33;;;1.23;;
66163;SDS011;52962;51.088;3.096;2023-07-09T07:08:22;0.75;;;0.75;;
66163;SDS011;52962;51.088;3.096;2023-07-09T07:10:54;0.75;;;0.75;;
66163;SDS011;52962;51.088;3.096;2023-07-09T07:13:28;1.95;;;1.17;;
66163;SDS011;52962;51.088;3.096;2023-07-09T07:15:57;2.15;;;1.35;;
66163;SDS011;52962;51.088;3.096;2023-07-09T07:18:27;1.00;;;1.00;;
66163;SDS011;52962;51.088;3.096;2023-07-09T07:20:56;0.77;;;0.77;;
66163;SDS011;52962;51.088;3.096;2023-07-09T07:23:24;1.67;;;1.25;;
66163;SDS011;52962;51.088;3.096;2023-07-09T07:25:53;0.95;;;0.95;;
66163;SDS011;52962;51.088;3.096;2023-07-09T07:28:22;1.10;;;1.10;;
66163;SDS011;52962;51.088;3.096;2023-07-09T07:31:00;1.35;;;1.05;;
66163;SDS011;52962;51.088;3.096;2023-07-09T07:33:30;3.90;;;0.98;;
66163;SDS011;52962;51.088;3.096;2023-07-09T07:35:58;1.30;;;1.20;;
66163;SDS011;52962;51.088;3.096;2023-07-09T07:38:46;0.77;;;0.77;;
66163;SDS011;52962;51.088;3.096;2023-07-09T07:41:15;1.50;;;1.40;;
66163;SDS011;52962;51.088;3.096;2023-07-09T07:43:43;1.70;;;1.02;;
66163;SDS011;52962;51.088;3.096;2023-07-09T07:46:12;1.48;;;1.38;;
66163;SDS011;52962;51.088;3.096;2023-07-09T07:48:42;1.65;;;1.17;;
66163;SDS011;52962;51.088;3.096;2023-07-09T07:51:10;1.73;;;1.63;;
66163;SDS011;52962;51.088;3.096;2023-07-09T07:53:39;0.98;;;0.93;;
66163;SDS011;52962;51.088;3.096;2023-07-09T07:56:07;1.35;;;1.25;;
66163;SDS011;52962;51.088;3.096;2023-07-09T07:58:35;1.55;;;1.42;;
66163;SDS011;52962;51.088;3.096;2023-07-09T08:01:03;0.85;;;0.82;;
66163;SDS011;52962;51.088;3.096;2023-07-09T08:03:32;2.88;;;1.17;;
66163;SDS011;52962;51.088;3.096;2023-07-09T08:06:02;1.50;;;1.40;;
66163;SDS011;52962;51.088;3.096;2023-07-09T08:08:30;1.38;;;1.17;;
66163;SDS011;52962;51.088;3.096;2023-07-09T08:11:00;2.65;;;1.40;;
66163;SDS011;52962;51.088;3.096;2023-07-09T08:13:32;1.85;;;1.42;;
66163;SDS011;52962;51.088;3.096;2023-07-09T08:16:01;0.82;;;0.82;;
66163;SDS011;52962;51.088;3.096;2023-07-09T08:18:31;0.60;;;0.60;;
66163;SDS011;52962;51.088;3.096;2023-07-09T08:20:59;1.35;;;1.20;;
66163;SDS011;52962;51.088;3.096;2023-07-09T08:23:30;0.98;;;0.98;;
66163;SDS011;52962;51.088;3.096;2023-07-09T08:25:59;1.17;;;1.02;;
66163;SDS011;52962;51.088;3.096;2023-07-09T08:28:30;0.85;;;0.85;;
66163;SDS011;52962;51.088;3.096;2023-07-09T08:30:58;2.10;;;1.23;;
66163;SDS011;52962;51.088;3.096;2023-07-09T08:33:28;1.38;;;1.27;;
66163;SDS011;52962;51.088;3.096;2023-07-09T08:35:56;1.27;;;1.17;;
66163;SDS011;52962;51.088;3.096;2023-07-09T08:38:26;1.40;;;1.30;;
66163;SDS011;52962;51.088;3.096;2023-07-09T08:40:56;1.55;;;1.45;;
66163;SDS011;52962;51.088;3.096;2023-07-09T08:43:31;0.75;;;0.75;;
66163;SDS011;52962;51.088;3.096;2023-07-09T08:46:02;0.90;;;0.80;;
66163;SDS011;52962;51.088;3.096;2023-07-09T08:48:36;1.58;;;1.48;;
66163;SDS011;52962;51.088;3.096;2023-07-09T08:51:09;1.58;;;1.17;;
66163;SDS011;52962;51.088;3.096;2023-07-09T08:53:44;0.90;;;0.90;;
66163;SDS011;52962;51.088;3.096;2023-07-09T08:56:16;1.20;;;1.10;;
66163;SDS011;52962;51.088;3.096;2023-07-09T08:58:45;0.95;;;0.77;;
66163;SDS011;52962;51.088;3.096;2023-07-09T09:01:18;1.85;;;0.63;;
66163;SDS011;52962;51.088;3.096;2023-07-09T09:03:49;0.93;;;0.73;;
66163;SDS011;52962;51.088;3.096;2023-07-09T09:06:20;1.52;;;1.13;;
66163;SDS011;52962;51.088;3.096;2023-07-09T09:08:54;1.10;;;1.00;;
66163;SDS011;52962;51.088;3.096;2023-07-09T09:11:32;2.80;;;1.27;;
66163;SDS011;52962;51.088;3.096;2023-07-09T09:14:16;2.25;;;1.35;;
66163;SDS011;52962;51.088;3.096;2023-07-09T09:16:51;0.63;;;0.63;;
66163;SDS011;52962;51.088;3.096;2023-07-09T09:19:22;1.50;;;1.10;;
66163;SDS011;52962;51.088;3.096;2023-07-09T09:21:56;2.55;;;1.27;;
66163;SDS011;52962;51.088;3.096;2023-07-09T09:24:34;2.97;;;0.93;;
66163;SDS011;52962;51.088;3.096;2023-07-09T09:27:04;1.17;;;1.08;;
66163;SDS011;52962;51.088;3.096;2023-07-09T09:29:33;0.60;;;0.60;;
66163;SDS011;52962;51.088;3.096;2023-07-09T09:32:04;3.15;;;1.55;;
66163;SDS011;52962;51.088;3.096;2023-07-09T09:34:45;2.78;;;1.08;;
66163;SDS011;52962;51.088;3.096;2023-07-09T09:37:15;1.33;;;1.23;;
66163;SDS011;52962;51.088;3.096;2023-07-09T09:39:55;0.65;;;0.65;;
66163;SDS011;52962;51.088;3.096;2023-07-09T09:42:42;1.30;;;1.20;;
66163;SDS011;52962;51.088;3.096;2023-07-09T09:45:11;1.40;;;1.30;;
66163;SDS011;52962;51.088;3.096;2023-07-09T09:47:43;1.13;;;1.02;;
66163;SDS011;52962;51.088;3.096;2023-07-09T09:50:13;1.83;;;1.73;;
66163;SDS011;52962;51.088;3.096;2023-07-09T09:52:43;1.58;;;1.30;;
66163;SDS011;52962;51.088;3.096;2023-07-09T09:55:16;1.83;;;1.52;;
66163;SDS011;52962;51.088;3.096;2023-07-09T09:57:49;2.88;;;1.90;;
66163;SDS011;52962;51.088;3.096;2023-07-09T10:00:21;2.47;;;2.28;;
66163;SDS011;52962;51.088;3.096;2023-07-09T10:02:56;2.30;;;2.08;;
66163;SDS011;52962;51.088;3.096;2023-07-09T10:05:28;2.38;;;2.25;;
66163;SDS011;52962;51.088;3.096;2023-07-09T10:08:00;2.40;;;2.25;;
66163;SDS011;52962;51.088;3.096;2023-07-09T10:10:37;2.00;;;1.90;;
66163;SDS011;52962;51.088;3.096;2023-07-09T10:13:10;2.38;;;1.77;;
66163;SDS011;52962;51.088;3.096;2023-07-09T10:15:52;1.88;;;1.77;;
66163;SDS011;52962;51.088;3.096;2023-07-09T10:18:33;2.67;;;2.53;;
66163;SDS011;52962;51.088;3.096;2023-07-09T10:21:14;2.05;;;1.90;;
66163;SDS011;52962;51.088;3.096;2023-07-09T10:23:48;2.75;;;2.55;;
66163;SDS011;52962;51.088;3.096;2023-07-09T10:26:29;2.60;;;2.40;;
66163;SDS011;52962;51.088;3.096;2023-07-09T10:29:14;1.98;;;1.75;;
66163;SDS011;52962;51.088;3.096;2023-07-09T10:31:56;2.45;;;2.30;;
66163;SDS011;52962;51.088;3.096;2023-07-09T10:34:32;2.47;;;2.10;;
66163;SDS011;52962;51.088;3.096;2023-07-09T10:37:15;1.75;;;1.65;;
66163;SDS011;52962;51.088;3.096;2023-07-09T10:39:52;1.85;;;1.75;;
66163;SDS011;52962;51.088;3.096;2023-07-09T10:42:26;2.33;;;2.13;;
66163;SDS011;52962;51.088;3.096;2023-07-09T10:44:59;1.80;;;1.70;;
66163;SDS011;52962;51.088;3.096;2023-07-09T10:47:32;1.70;;;1.40;;
66163;SDS011;52962;51.088;3.096;2023-07-09T10:50:05;1.27;;;1.13;;
66163;SDS011;52962;51.088;3.096;2023-07-09T10:52:40;1.15;;;1.05;;
66163;SDS011;52962;51.088;3.096;2023-07-09T10:55:15;1.65;;;1.45;;
66163;SDS011;52962;51.088;3.096;2023-07-09T10:57:51;1.35;;;1.25;;
66163;SDS011;52962;51.088;3.096;2023-07-09T11:00:27;0.98;;;0.98;;
66163;SDS011;52962;51.088;3.096;2023-07-09T11:03:03;1.17;;;1.08;;
66163;SDS011;52962;51.088;3.096;2023-07-09T11:05:43;1.40;;;1.30;;
66163;SDS011;52962;51.088;3.096;2023-07-09T11:08:12;1.40;;;1.30;;
66163;SDS011;52962;51.088;3.096;2023-07-09T11:10:46;1.25;;;1.15;;
66163;SDS011;52962;51.088;3.096;2023-07-09T11:13:23;1.13;;;1.13;;
66163;SDS011;52962;51.088;3.096;2023-07-09T11:16:12;2.40;;;1.75;;
66163;SDS011;52962;51.088;3.096;2023-07-09T11:18:52;1.67;;;1.58;;
66163;SDS011;52962;51.088;3.096;2023-07-09T11:21:23;1.38;;;1.15;;
66163;SDS011;52962;51.088;3.096;2023-07-09T11:23:52;1.35;;;1.25;;
66163;SDS011;52962;51.088;3.096;2023-07-09T11:26:23;2.65;;;1.63;;
66163;SDS011;52962;51.088;3.096;2023-07-09T11:28:54;1.40;;;1.30;;
66163;SDS011;52962;51.088;3.096;2023-07-09T11:31:38;1.27;;;1.08;;
66163;SDS011;52962;51.088;3.096;2023-07-09T11:34:08;2.88;;;1.42;;
66163;SDS011;52962;51.088;3.096;2023-07-09T11:36:46;0.98;;;0.95;;
66163;SDS011;52962;51.088;3.096;2023-07-09T11:39:17;1.55;;;1.45;;
66163;SDS011;52962;51.088;3.096;2023-07-09T11:41:48;0.98;;;0.98;;
66163;SDS011;52962;51.088;3.096;2023-07-09T11:44:19;1.10;;;0.98;;
66163;SDS011;52962;51.088;3.096;2023-07-09T11:46:54;0.93;;;0.93;;
66163;SDS011;52962;51.088;3.096;2023-07-09T11:49:32;1.23;;;0.93;;
66163;SDS011;52962;51.088;3.096;2023-07-09T11:52:05;1.42;;;1.08;;
66163;SDS011;52962;51.088;3.096;2023-07-09T11:54:37;1.77;;;1.45;;
66163;SDS011;52962;51.088;3.096;2023-07-09T11:57:10;1.30;;;1.05;;
66163;SDS011;52962;51.088;3.096;2023-07-09T11:59:42;1.20;;;1.10;;
66163;SDS011;52962;51.088;3.096;2023-07-09T12:02:19;1.80;;;1.42;;
66163;SDS011;52962;51.088;3.096;2023-07-09T12:04:49;1.08;;;0.95;;
66163;SDS011;52962;51.088;3.096;2023-07-09T12:07:20;0.95;;;0.95;;
66163;SDS011;52962;51.088;3.096;2023-07-09T12:09:52;1.60;;;1.50;;
66163;SDS011;52962;51.088;3.096;2023-07-09T12:12:22;0.55;;;0.55;;
66163;SDS011;52962;51.088;3.096;2023-07-09T12:14:54;1.05;;;1.00;;
66163;SDS011;52962;51.088;3.096;2023-07-09T12:17:23;1.00;;;0.90;;
66163;SDS011;52962;51.088;3.096;2023-07-09T12:19:57;1.13;;;1.05;;
66163;SDS011;52962;51.088;3.096;2023-07-09T12:22:25;0.77;;;0.77;;
66163;SDS011;52962;51.088;3.096;2023-07-09T12:24:53;1.35;;;1.25;;
66163;SDS011;52962;51.088;3.096;2023-07-09T12:27:24;0.82;;;0.82;;
66163;SDS011;52962;51.088;3.096;2023-07-09T12:29:56;1.10;;;1.10;;
66163;SDS011;52962;51.088;3.096;2023-07-09T12:32:24;1.98;;;1.20;;
66163;SDS011;52962;51.088;3.096;2023-07-09T12:34:55;0.95;;;0.95;;
66163;SDS011;52962;51.088;3.096;2023-07-09T12:37:24;0.98;;;0.98;;
66163;SDS011;52962;51.088;3.096;2023-07-09T12:39:56;0.60;;;0.60;;
66163;SDS011;52962;51.088;3.096;2023-07-09T12:42:29;0.68;;;0.68;;
66163;SDS011;52962;51.088;3.096;2023-07-09T12:45:01;0.45;;;0.45;;
66163;SDS011;52962;51.088;3.096;2023-07-09T12:47:30;0.73;;;0.55;;
66163;SDS011;52962;51.088;3.096;2023-07-09T12:50:03;0.95;;;0.93;;
66163;SDS011;52962;51.088;3.096;2023-07-09T12:52:45;0.73;;;0.70;;
66163;SDS011;52962;51.088;3.096;2023-07-09T12:55:21;0.50;;;0.50;;
66163;SDS011;52962;51.088;3.096;2023-07-09T12:57:53;0.63;;;0.63;;
66163;SDS011;52962;51.088;3.096;2023-07-09T13:00:25;0.75;;;0.75;;
66163;SDS011;52962;51.088;3.096;2023-07-09T13:02:58;0.38;;;0.38;;
66163;SDS011;52962;51.088;3.096;2023-07-09T13:05:27;0.73;;;0.70;;
66163;SDS011;52962;51.088;3.096;2023-07-09T13:07:58;0.93;;;0.93;;
66163;SDS011;52962;51.088;3.096;2023-07-09T13:10:28;0.77;;;0.77;;
66163;SDS011;52962;51.088;3.096;2023-07-09T13:13:00;1.00;;;0.80;;
66163;SDS011;52962;51.088;3.096;2023-07-09T13:15:31;0.88;;;0.70;;
66163;SDS011;52962;51.088;3.096;2023-07-09T13:18:09;0.22;;;0.22;;
66163;SDS011;52962;51.088;3.096;2023-07-09T13:20:39;0.40;;;0.40;;
66163;SDS011;52962;51.088;3.096;2023-07-09T13:23:09;0.50;;;0.50;;
66163;SDS011;52962;51.088;3.096;2023-07-09T13:25:39;0.43;;;0.40;;
66163;SDS011;52962;51.088;3.096;2023-07-09T13:28:15;0.70;;;0.68;;
66163;SDS011;52962;51.088;3.096;2023-07-09T13:30:46;0.50;;;0.50;;
66163;SDS011;52962;51.088;3.096;2023-07-09T13:33:15;0.25;;;0.25;;
66163;SDS011;52962;51.088;3.096;2023-07-09T13:35:44;0.45;;;0.45;;
66163;SDS011;52962;51.088;3.096;2023-07-09T13:38:13;1.23;;;0.65;;
66163;SDS011;52962;51.088;3.096;2023-07-09T13:40:42;0.55;;;0.55;;
66163;SDS011;52962;51.088;3.096;2023-07-09T13:43:12;0.68;;;0.55;;
66163;SDS011;52962;51.088;3.096;2023-07-09T13:45:41;3.08;;;0.45;;
66163;SDS011;52962;51.088;3.096;2023-07-09T13:48:15;0.95;;;0.45;;
66163;SDS011;52962;51.088;3.096;2023-07-09T13:50:46;1.55;;;0.90;;
66163;SDS011;52962;51.088;3.096;2023-07-09T13:53:17;0.50;;;0.50;;
66163;SDS011;52962;51.088;3.096;2023-07-09T13:55:47;0.30;;;0.30;;
66163;SDS011;52962;51.088;3.096;2023-07-09T13:58:17;0.32;;;0.32;;
66163;SDS011;52962;51.088;3.096;2023-07-09T14:00:49;0.80;;;0.80;;
66163;SDS011;52962;51.088;3.096;2023-07-09T14:03:20;0.45;;;0.43;;
66163;SDS011;52962;51.088;3.096;2023-07-09T14:05:51;0.35;;;0.35;;
66163;SDS011;52962;51.088;3.096;2023-07-09T14:08:19;0.52;;;0.52;;
66163;SDS011;52962;51.088;3.096;2023-07-09T14:10:49;0.10;;;0.10;;
66163;SDS011;52962;51.088;3.096;2023-07-09T14:13:18;0.50;;;0.50;;
66163;SDS011;52962;51.088;3.096;2023-07-09T14:15:49;0.77;;;0.77;;
66163;SDS011;52962;51.088;3.096;2023-07-09T14:18:18;0.55;;;0.55;;
66163;SDS011;52962;51.088;3.096;2023-07-09T14:20:49;1.13;;;0.52;;
66163;SDS011;52962;51.088;3.096;2023-07-09T14:23:18;0.65;;;0.30;;
66163;SDS011;52962;51.088;3.096;2023-07-09T14:25:47;0.85;;;0.28;;
66163;SDS011;52962;51.088;3.096;2023-07-09T14:28:17;0.45;;;0.45;;
66163;SDS011;52962;51.088;3.096;2023-07-09T14:30:48;0.40;;;0.40;;
66163;SDS011;52962;51.088;3.096;2023-07-09T14:33:19;0.40;;;0.40;;
66163;SDS011;52962;51.088;3.096;2023-07-09T14:35:49;1.02;;;0.57;;
66163;SDS011;52962;51.088;3.096;2023-07-09T14:38:18;0.20;;;0.20;;
66163;SDS011;52962;51.088;3.096;2023-07-09T14:40:49;0.55;;;0.40;;
66163;SDS011;52962;51.088;3.096;2023-07-09T14:43:19;0.57;;;0.35;;
66163;SDS011;52962;51.088;3.096;2023-07-09T14:45:48;0.32;;;0.32;;
66163;SDS011;52962;51.088;3.096;2023-07-09T14:48:17;0.32;;;0.32;;
66163;SDS011;52962;51.088;3.096;2023-07-09T14:50:48;0.43;;;0.43;;
66163;SDS011;52962;51.088;3.096;2023-07-09T14:53:17;0.55;;;0.52;;
66163;SDS011;52962;51.088;3.096;2023-07-09T14:55:49;0.75;;;0.32;;
66163;SDS011;52962;51.088;3.096;2023-07-09T14:58:18;1.40;;;0.85;;
66163;SDS011;52962;51.088;3.096;2023-07-09T15:00:49;0.93;;;0.52;;
66163;SDS011;52962;51.088;3.096;2023-07-09T15:03:18;0.98;;;0.50;;
66163;SDS011;52962;51.088;3.096;2023-07-09T15:05:49;0.32;;;0.32;;
66163;SDS011;52962;51.088;3.096;2023-07-09T15:08:19;0.45;;;0.45;;
66163;SDS011;52962;51.088;3.096;2023-07-09T15:10:49;0.45;;;0.45;;
66163;SDS011;52962;51.088;3.096;2023-07-09T15:13:25;1.23;;;0.55;;
66163;SDS011;52962;51.088;3.096;2023-07-09T15:15:58;1.25;;;0.57;;
66163;SDS011;52962;51.088;3.096;2023-07-09T15:18:26;0.80;;;0.50;;